sensor_id;sensor_type;location;lat;lon;timestamp;temperature;humidity
18648;DHT22;9453;50.294;18.644;2023-03-23T00:00:07;10.80;95.60
18648;DHT22;9453;50.294;18.644;2023-03-23T05:01:52;9.90;98.50
18648;DHT22;9453;50.294;18.644;2023-03-23T05:04:19;9.90;98.40
18648;DHT22;9453;50.294;18.644;2023-03-23T05:06:46;9.90;98.40
18648;DHT22;9453;50.294;18.644;2023-03-23T05:09:13;9.90;98.40
18648;DHT22;9453;50.294;18.644;2023-03-23T05:11:41;10.00;97.90
18648;DHT22;9453;50.294;18.644;2023-03-23T05:14:08;10.00;97.90
18648;DHT22;9453;50.294;18.644;2023-03-23T05:16:35;10.10;97.90
18648;DHT22;9453;50.294;18.644;2023-03-23T05:19:04;10.10;97.80
18648;DHT22;9453;50.294;18.644;2023-03-23T05:21:33;10.20;97.70
18648;DHT22;9453;50.294;18.644;2023-03-23T05:24:00;10.20;97.60
18648;DHT22;9453;50.294;18.644;2023-03-23T05:26:28;10.30;97.50
18648;DHT22;9453;50.294;18.644;2023-03-23T05:28:55;10.40;97.40
18648;DHT22;9453;50.294;18.644;2023-03-23T05:31:22;10.40;97.20
18648;DHT22;9453;50.294;18.644;2023-03-23T05:33:50;10.50;97.00
18648;DHT22;9453;50.294;18.644;2023-03-23T05:36:18;10.60;96.80
18648;DHT22;9453;50.294;18.644;2023-03-23T05:38:45;10.60;96.40
18648;DHT22;9453;50.294;18.644;2023-03-23T05:41:15;10.70;96.30
18648;DHT22;9453;50.294;18.644;2023-03-23T05:43:42;10.80;96.20
18648;DHT22;9453;50.294;18.644;2023-03-23T05:46:09;10.80;96.00
18648;DHT22;9453;50.294;18.644;2023-03-23T05:48:36;10.90;95.90
18648;DHT22;9453;50.294;18.644;2023-03-23T05:51:04;11.00;95.50
18648;DHT22;9453;50.294;18.644;2023-03-23T05:53:32;11.00;95.30
18648;DHT22;9453;50.294;18.644;2023-03-23T05:56:02;11.10;95.10
18648;DHT22;9453;50.294;18.644;2023-03-23T05:58:29;11.20;94.80
18648;DHT22;9453;50.294;18.644;2023-03-23T06:00:56;11.30;94.60
18648;DHT22;9453;50.294;18.644;2023-03-23T06:03:23;11.30;94.40
18648;DHT22;9453;50.294;18.644;2023-03-23T06:05:50;11.40;94.20
18648;DHT22;9453;50.294;18.644;2023-03-23T06:08:17;11.50;94.10
18648;DHT22;9453;50.294;18.644;2023-03-23T06:10:46;11.50;93.70
18648;DHT22;9453;50.294;18.644;2023-03-23T06:13:13;11.60;93.30
18648;DHT22;9453;50.294;18.644;2023-03-23T06:15:40;11.60;93.20
18648;DHT22;9453;50.294;18.644;2023-03-23T06:18:08;11.70;93.30
18648;DHT22;9453;50.294;18.644;2023-03-23T06:20:36;11.70;93.10
18648;DHT22;9453;50.294;18.644;2023-03-23T06:23:03;11.80;93.00
18648;DHT22;9453;50.294;18.644;2023-03-23T06:25:33;11.90;92.90
18648;DHT22;9453;50.294;18.644;2023-03-23T06:28:01;12.00;93.10
18648;DHT22;9453;50.294;18.644;2023-03-23T06:30:28;12.00;92.50
18648;DHT22;9453;50.294;18.644;2023-03-23T06:32:55;12.10;92.30
18648;DHT22;9453;50.294;18.644;2023-03-23T06:35:23;12.20;92.30
18648;DHT22;9453;50.294;18.644;2023-03-23T06:37:50;12.30;92.30
18648;DHT22;9453;50.294;18.644;2023-03-23T06:40:19;12.30;92.10
18648;DHT22;9453;50.294;18.644;2023-03-23T06:42:47;12.40;92.20
18648;DHT22;9453;50.294;18.644;2023-03-23T06:45:15;12.50;92.00
18648;DHT22;9453;50.294;18.644;2023-03-23T06:47:45;12.60;91.90
18648;DHT22;9453;50.294;18.644;2023-03-23T06:50:14;12.70;91.70
18648;DHT22;9453;50.294;18.644;2023-03-23T06:52:41;12.80;91.40
18648;DHT22;9453;50.294;18.644;2023-03-23T06:55:12;12.80;91.10
18648;DHT22;9453;50.294;18.644;2023-03-23T06:57:39;12.90;91.00
18648;DHT22;9453;50.294;18.644;2023-03-23T07:00:08;12.90;90.70
18648;DHT22;9453;50.294;18.644;2023-03-23T07:02:39;13.00;90.50
18648;DHT22;9453;50.294;18.644;2023-03-23T07:05:06;13.00;90.30
18648;DHT22;9453;50.294;18.644;2023-03-23T07:07:34;13.10;90.30
18648;DHT22;9453;50.294;18.644;2023-03-23T07:10:02;13.00;90.20
18648;DHT22;9453;50.294;18.644;2023-03-23T07:12:29;13.10;90.20
18648;DHT22;9453;50.294;18.644;2023-03-23T07:14:56;13.00;90.20
18648;DHT22;9453;50.294;18.644;2023-03-23T07:17:24;13.00;90.20
18648;DHT22;9453;50.294;18.644;2023-03-23T07:19:52;13.00;90.20
18648;DHT22;9453;50.294;18.644;2023-03-23T07:22:19;12.90;90.10
18648;DHT22;9453;50.294;18.644;2023-03-23T07:24:46;12.90;90.20
18648;DHT22;9453;50.294;18.644;2023-03-23T07:27:13;12.90;90.40
18648;DHT22;9453;50.294;18.644;2023-03-23T07:29:40;12.90;90.20
18648;DHT22;9453;50.294;18.644;2023-03-23T07:32:10;12.90;90.30
18648;DHT22;9453;50.294;18.644;2023-03-23T07:34:38;12.90;90.20
18648;DHT22;9453;50.294;18.644;2023-03-23T07:37:06;12.90;90.00
18648;DHT22;9453;50.294;18.644;2023-03-23T07:39:33;13.00;89.70
18648;DHT22;9453;50.294;18.644;2023-03-23T07:42:01;13.00;89.30
18648;DHT22;9453;50.294;18.644;2023-03-23T07:44:28;13.00;89.10
18648;DHT22;9453;50.294;18.644;2023-03-23T07:46:55;13.00;88.80
18648;DHT22;9453;50.294;18.644;2023-03-23T07:49:22;13.00;88.80
18648;DHT22;9453;50.294;18.644;2023-03-23T07:51:49;13.10;88.90
18648;DHT22;9453;50.294;18.644;2023-03-23T07:54:17;13.20;89.10
18648;DHT22;9453;50.294;18.644;2023-03-23T07:56:44;13.40;88.70
18648;DHT22;9453;50.294;18.644;2023-03-23T07:59:12;13.50;88.10
18648;DHT22;9453;50.294;18.644;2023-03-23T08:01:39;13.60;87.90
18648;DHT22;9453;50.294;18.644;2023-03-23T08:04:06;13.80;87.50
18648;DHT22;9453;50.294;18.644;2023-03-23T08:06:34;13.90;86.40
18648;DHT22;9453;50.294;18.644;2023-03-23T08:09:02;14.10;87.10
18648;DHT22;9453;50.294;18.644;2023-03-23T08:11:33;14.30;85.80
18648;DHT22;9453;50.294;18.644;2023-03-23T08:14:00;14.50;84.50
18648;DHT22;9453;50.294;18.644;2023-03-23T08:16:28;14.70;83.80
18648;DHT22;9453;50.294;18.644;2023-03-23T08:18:55;14.90;83.50
18648;DHT22;9453;50.294;18.644;2023-03-23T08:21:22;14.90;82.30
18648;DHT22;9453;50.294;18.644;2023-03-23T08:23:49;15.10;82.30
18648;DHT22;9453;50.294;18.644;2023-03-23T08:26:16;15.20;81.70
18648;DHT22;9453;50.294;18.644;2023-03-23T08:28:45;15.30;81.30
18648;DHT22;9453;50.294;18.644;2023-03-23T08:31:14;15.40;80.30
18648;DHT22;9453;50.294;18.644;2023-03-23T08:33:42;15.60;80.50
18648;DHT22;9453;50.294;18.644;2023-03-23T08:36:09;15.80;79.30
18648;DHT22;9453;50.294;18.644;2023-03-23T08:38:36;16.00;79.50
18648;DHT22;9453;50.294;18.644;2023-03-23T08:41:05;16.10;78.80
18648;DHT22;9453;50.294;18.644;2023-03-23T08:43:33;16.20;78.40
18648;DHT22;9453;50.294;18.644;2023-03-23T08:46:01;16.30;78.00
18648;DHT22;9453;50.294;18.644;2023-03-23T08:48:32;16.40;77.10
18648;DHT22;9453;50.294;18.644;2023-03-23T08:51:03;16.50;77.00
18648;DHT22;9453;50.294;18.644;2023-03-23T08:53:30;16.70;76.20
18648;DHT22;9453;50.294;18.644;2023-03-23T08:56:02;16.80;75.00
18648;DHT22;9453;50.294;18.644;2023-03-23T08:58:29;17.00;75.40
18648;DHT22;9453;50.294;18.644;2023-03-23T09:00:56;16.90;73.10
18648;DHT22;9453;50.294;18.644;2023-03-23T09:03:25;16.90;73.70
18648;DHT22;9453;50.294;18.644;2023-03-23T09:05:52;16.80;73.10
18648;DHT22;9453;50.294;18.644;2023-03-23T09:08:19;16.70;72.80
18648;DHT22;9453;50.294;18.644;2023-03-23T09:10:46;16.60;71.60
18648;DHT22;9453;50.294;18.644;2023-03-23T09:13:15;16.60;71.90
18648;DHT22;9453;50.294;18.644;2023-03-23T09:15:42;16.60;72.10
18648;DHT22;9453;50.294;18.644;2023-03-23T09:18:09;16.60;72.20
18648;DHT22;9453;50.294;18.644;2023-03-23T09:20:38;16.70;72.00
18648;DHT22;9453;50.294;18.644;2023-03-23T09:23:05;16.70;71.20
18648;DHT22;9453;50.294;18.644;2023-03-23T09:25:32;16.80;71.00
18648;DHT22;9453;50.294;18.644;2023-03-23T09:27:59;17.00;70.90
18648;DHT22;9453;50.294;18.644;2023-03-23T09:30:28;17.10;69.90
18648;DHT22;9453;50.294;18.644;2023-03-23T09:32:56;17.20;68.90
18648;DHT22;9453;50.294;18.644;2023-03-23T09:35:26;17.50;68.60
18648;DHT22;9453;50.294;18.644;2023-03-23T09:37:55;17.80;67.90
18648;DHT22;9453;50.294;18.644;2023-03-23T09:40:24;17.90;66.80
18648;DHT22;9453;50.294;18.644;2023-03-23T09:43:13;18.00;66.40
18648;DHT22;9453;50.294;18.644;2023-03-23T09:45:50;17.90;66.40
18648;DHT22;9453;50.294;18.644;2023-03-23T09:48:46;17.80;65.40
18648;DHT22;9453;50.294;18.644;2023-03-23T09:51:23;17.70;64.40
18648;DHT22;9453;50.294;18.644;2023-03-23T09:54:03;17.60;63.80
18648;DHT22;9453;50.294;18.644;2023-03-23T09:56:33;17.70;63.60
18648;DHT22;9453;50.294;18.644;2023-03-23T09:59:07;17.70;64.40
18648;DHT22;9453;50.294;18.644;2023-03-23T10:01:39;17.90;64.30
18648;DHT22;9453;50.294;18.644;2023-03-23T10:04:12;18.10;64.50
18648;DHT22;9453;50.294;18.644;2023-03-23T10:06:42;18.30;62.90
18648;DHT22;9453;50.294;18.644;2023-03-23T10:09:15;18.30;61.80
18648;DHT22;9453;50.294;18.644;2023-03-23T10:11:51;18.50;61.20
18648;DHT22;9453;50.294;18.644;2023-03-23T10:14:31;18.80;61.40
18648;DHT22;9453;50.294;18.644;2023-03-23T10:17:08;18.90;61.20
18648;DHT22;9453;50.294;18.644;2023-03-23T10:19:46;18.80;60.50
18648;DHT22;9453;50.294;18.644;2023-03-23T10:22:17;18.80;60.80
18648;DHT22;9453;50.294;18.644;2023-03-23T10:24:51;18.70;60.30
18648;DHT22;9453;50.294;18.644;2023-03-23T10:27:25;18.80;60.90
18648;DHT22;9453;50.294;18.644;2023-03-23T10:29:58;18.80;60.80
18648;DHT22;9453;50.294;18.644;2023-03-23T10:32:41;18.70;61.00
18648;DHT22;9453;50.294;18.644;2023-03-23T10:35:13;18.60;61.00
18648;DHT22;9453;50.294;18.644;2023-03-23T10:37:46;18.50;61.10
18648;DHT22;9453;50.294;18.644;2023-03-23T10:40:22;18.40;61.70
18648;DHT22;9453;50.294;18.644;2023-03-23T10:42:51;18.20;61.70
18648;DHT22;9453;50.294;18.644;2023-03-23T10:45:21;18.10;62.10
18648;DHT22;9453;50.294;18.644;2023-03-23T10:47:55;18.10;62.60
18648;DHT22;9453;50.294;18.644;2023-03-23T10:50:34;18.10;62.90
18648;DHT22;9453;50.294;18.644;2023-03-23T10:53:11;18.10;62.60
18648;DHT22;9453;50.294;18.644;2023-03-23T10:55:42;18.10;62.30
18648;DHT22;9453;50.294;18.644;2023-03-23T10:58:12;18.10;61.80
18648;DHT22;9453;50.294;18.644;2023-03-23T11:00:42;18.10;62.10
18648;DHT22;9453;50.294;18.644;2023-03-23T11:03:29;18.10;62.30
18648;DHT22;9453;50.294;18.644;2023-03-23T11:06:02;18.10;62.90
18648;DHT22;9453;50.294;18.644;2023-03-23T11:08:32;18.10;63.00
18648;DHT22;9453;50.294;18.644;2023-03-23T11:11:10;18.10;62.80
18648;DHT22;9453;50.294;18.644;2023-03-23T11:13:41;18.20;62.90
18648;DHT22;9453;50.294;18.644;2023-03-23T11:16:10;18.20;62.30
18648;DHT22;9453;50.294;18.644;2023-03-23T11:18:39;18.20;61.90
18648;DHT22;9453;50.294;18.644;2023-03-23T11:21:12;18.20;61.90
18648;DHT22;9453;50.294;18.644;2023-03-23T11:23:42;18.40;62.30
18648;DHT22;9453;50.294;18.644;2023-03-23T11:26:13;18.50;62.00
18648;DHT22;9453;50.294;18.644;2023-03-23T11:28:46;18.60;61.40
18648;DHT22;9453;50.294;18.644;2023-03-23T11:31:16;18.70;61.20
18648;DHT22;9453;50.294;18.644;2023-03-23T11:33:50;18.80;61.10
18648;DHT22;9453;50.294;18.644;2023-03-23T11:36:19;18.90;60.80
18648;DHT22;9453;50.294;18.644;2023-03-23T11:38:53;19.00;60.80
18648;DHT22;9453;50.294;18.644;2023-03-23T11:41:23;19.00;60.20
18648;DHT22;9453;50.294;18.644;2023-03-23T11:43:52;18.90;59.90
18648;DHT22;9453;50.294;18.644;2023-03-23T11:46:30;18.90;60.10
18648;DHT22;9453;50.294;18.644;2023-03-23T11:49:01;18.90;60.30
18648;DHT22;9453;50.294;18.644;2023-03-23T11:51:34;18.90;60.40
18648;DHT22;9453;50.294;18.644;2023-03-23T11:54:09;18.90;60.80
18648;DHT22;9453;50.294;18.644;2023-03-23T11:56:42;19.00;60.70
18648;DHT22;9453;50.294;18.644;2023-03-23T11:59:11;19.00;60.40
18648;DHT22;9453;50.294;18.644;2023-03-23T12:01:53;19.10;60.00
18648;DHT22;9453;50.294;18.644;2023-03-23T12:04:35;19.10;59.90
18648;DHT22;9453;50.294;18.644;2023-03-23T12:07:30;19.20;60.00
18648;DHT22;9453;50.294;18.644;2023-03-23T12:10:17;19.30;60.20
18648;DHT22;9453;50.294;18.644;2023-03-23T12:12:51;19.40;59.70
18648;DHT22;9453;50.294;18.644;2023-03-23T12:15:34;19.50;60.20
18648;DHT22;9453;50.294;18.644;2023-03-23T12:18:09;19.50;59.70
18648;DHT22;9453;50.294;18.644;2023-03-23T12:20:48;19.50;59.90
18648;DHT22;9453;50.294;18.644;2023-03-23T12:23:22;19.60;60.40
18648;DHT22;9453;50.294;18.644;2023-03-23T12:26:01;19.60;59.40
18648;DHT22;9453;50.294;18.644;2023-03-23T12:28:39;19.60;59.70
18648;DHT22;9453;50.294;18.644;2023-03-23T12:31:13;19.60;60.00
18648;DHT22;9453;50.294;18.644;2023-03-23T12:33:53;19.60;59.70
18648;DHT22;9453;50.294;18.644;2023-03-23T12:36:32;19.80;60.00
18648;DHT22;9453;50.294;18.644;2023-03-23T12:41:57;20.00;58.90
18648;DHT22;9453;50.294;18.644;2023-03-23T12:44:31;20.20;59.30
18648;DHT22;9453;50.294;18.644;2023-03-23T12:47:18;20.30;58.30
18648;DHT22;9453;50.294;18.644;2023-03-23T12:49:52;20.30;58.20
18648;DHT22;9453;50.294;18.644;2023-03-23T12:52:22;20.20;58.50
18648;DHT22;9453;50.294;18.644;2023-03-23T12:54:58;19.90;58.00
18648;DHT22;9453;50.294;18.644;2023-03-23T12:57:31;19.60;58.70
18648;DHT22;9453;50.294;18.644;2023-03-23T13:00:06;19.30;59.50
18648;DHT22;9453;50.294;18.644;2023-03-23T13:02:42;19.10;60.00
18648;DHT22;9453;50.294;18.644;2023-03-23T13:05:28;19.00;60.80
18648;DHT22;9453;50.294;18.644;2023-03-23T13:08:01;19.00;61.00
18648;DHT22;9453;50.294;18.644;2023-03-23T13:10:33;19.00;61.20
18648;DHT22;9453;50.294;18.644;2023-03-23T13:13:01;19.00;61.60
18648;DHT22;9453;50.294;18.644;2023-03-23T13:15:35;18.90;61.40
18648;DHT22;9453;50.294;18.644;2023-03-23T13:18:11;19.00;61.70
18648;DHT22;9453;50.294;18.644;2023-03-23T13:20:50;19.20;61.00
18648;DHT22;9453;50.294;18.644;2023-03-23T13:23:20;19.30;60.40
18648;DHT22;9453;50.294;18.644;2023-03-23T13:25:58;19.40;59.90
18648;DHT22;9453;50.294;18.644;2023-03-23T13:28:27;19.60;60.00
18648;DHT22;9453;50.294;18.644;2023-03-23T13:31:13;19.70;59.60
18648;DHT22;9453;50.294;18.644;2023-03-23T13:33:46;19.80;59.20
18648;DHT22;9453;50.294;18.644;2023-03-23T13:36:14;19.90;59.30
18648;DHT22;9453;50.294;18.644;2023-03-23T13:38:46;19.80;58.60
18648;DHT22;9453;50.294;18.644;2023-03-23T13:41:16;19.70;58.40
18648;DHT22;9453;50.294;18.644;2023-03-23T13:43:45;19.70;59.00
18648;DHT22;9453;50.294;18.644;2023-03-23T13:46:26;19.60;58.90
18648;DHT22;9453;50.294;18.644;2023-03-23T13:49:16;19.60;58.60
18648;DHT22;9453;50.294;18.644;2023-03-23T13:52:06;19.40;58.90
18648;DHT22;9453;50.294;18.644;2023-03-23T13:54:40;19.40;59.10
18648;DHT22;9453;50.294;18.644;2023-03-23T13:57:36;19.40;59.00
18648;DHT22;9453;50.294;18.644;2023-03-23T14:00:25;19.40;58.80
18648;DHT22;9453;50.294;18.644;2023-03-23T14:02:59;19.50;59.20
18648;DHT22;9453;50.294;18.644;2023-03-23T14:05:33;19.60;59.40
18648;DHT22;9453;50.294;18.644;2023-03-23T14:08:03;19.60;59.20
18648;DHT22;9453;50.294;18.644;2023-03-23T14:10:35;19.60;59.10
18648;DHT22;9453;50.294;18.644;2023-03-23T14:13:05;19.60;59.30
18648;DHT22;9453;50.294;18.644;2023-03-23T14:15:42;19.70;59.50
18648;DHT22;9453;50.294;18.644;2023-03-23T14:18:15;19.70;59.40
18648;DHT22;9453;50.294;18.644;2023-03-23T14:20:46;19.80;58.80
18648;DHT22;9453;50.294;18.644;2023-03-23T14:23:18;20.00;58.80
18648;DHT22;9453;50.294;18.644;2023-03-23T14:25:54;19.90;58.10
18648;DHT22;9453;50.294;18.644;2023-03-23T14:28:21;19.80;57.80
18648;DHT22;9453;50.294;18.644;2023-03-23T14:30:52;19.70;58.20
18648;DHT22;9453;50.294;18.644;2023-03-23T14:33:21;19.60;58.20
18648;DHT22;9453;50.294;18.644;2023-03-23T14:35:48;19.50;58.30
18648;DHT22;9453;50.294;18.644;2023-03-23T14:38:17;19.40;58.40
18648;DHT22;9453;50.294;18.644;2023-03-23T14:40:45;19.20;58.70
18648;DHT22;9453;50.294;18.644;2023-03-23T14:43:15;19.10;59.00
18648;DHT22;9453;50.294;18.644;2023-03-23T14:45:43;19.10;59.20
18648;DHT22;9453;50.294;18.644;2023-03-23T14:48:13;19.00;59.30
18648;DHT22;9453;50.294;18.644;2023-03-23T14:50:49;18.90;59.70
18648;DHT22;9453;50.294;18.644;2023-03-23T14:53:19;18.80;59.70
18648;DHT22;9453;50.294;18.644;2023-03-23T14:55:51;18.70;60.00
18648;DHT22;9453;50.294;18.644;2023-03-23T14:58:20;18.60;60.30
18648;DHT22;9453;50.294;18.644;2023-03-23T15:00:53;18.50;60.80
18648;DHT22;9453;50.294;18.644;2023-03-23T15:03:22;18.40;61.10
18648;DHT22;9453;50.294;18.644;2023-03-23T15:05:54;18.30;61.60
18648;DHT22;9453;50.294;18.644;2023-03-23T15:08:25;18.20;61.70
18648;DHT22;9453;50.294;18.644;2023-03-23T15:11:02;18.20;62.10
18648;DHT22;9453;50.294;18.644;2023-03-23T15:13:30;18.20;62.50
18648;DHT22;9453;50.294;18.644;2023-03-23T15:16:03;18.10;62.60
18648;DHT22;9453;50.294;18.644;2023-03-23T15:18:35;18.00;62.70
18648;DHT22;9453;50.294;18.644;2023-03-23T15:21:18;17.90;62.90
18648;DHT22;9453;50.294;18.644;2023-03-23T15:23:46;17.90;63.20
18648;DHT22;9453;50.294;18.644;2023-03-23T15:26:34;17.80;63.40
18648;DHT22;9453;50.294;18.644;2023-03-23T15:29:16;17.80;63.70
18648;DHT22;9453;50.294;18.644;2023-03-23T15:31:46;17.70;63.90
18648;DHT22;9453;50.294;18.644;2023-03-23T15:34:20;17.70;64.20
18648;DHT22;9453;50.294;18.644;2023-03-23T15:37:04;17.70;64.50
18648;DHT22;9453;50.294;18.644;2023-03-23T15:39:32;17.60;64.80
18648;DHT22;9453;50.294;18.644;2023-03-23T15:42:00;17.60;65.20
18648;DHT22;9453;50.294;18.644;2023-03-23T15:44:29;17.50;65.30
18648;DHT22;9453;50.294;18.644;2023-03-23T15:47:18;17.50;65.90
18648;DHT22;9453;50.294;18.644;2023-03-23T15:49:46;17.50;66.20
18648;DHT22;9453;50.294;18.644;2023-03-23T15:52:16;17.50;66.20
18648;DHT22;9453;50.294;18.644;2023-03-23T15:54:48;17.40;66.20
18648;DHT22;9453;50.294;18.644;2023-03-23T15:57:15;17.40;66.50
18648;DHT22;9453;50.294;18.644;2023-03-23T15:59:42;17.40;67.10
18648;DHT22;9453;50.294;18.644;2023-03-23T16:02:21;17.30;67.40
18648;DHT22;9453;50.294;18.644;2023-03-23T16:04:49;17.30;67.60
18648;DHT22;9453;50.294;18.644;2023-03-23T16:07:21;17.30;68.40
18648;DHT22;9453;50.294;18.644;2023-03-23T16:09:48;17.30;68.80
18648;DHT22;9453;50.294;18.644;2023-03-23T16:12:15;17.20;68.90
18648;DHT22;9453;50.294;18.644;2023-03-23T16:14:42;17.20;68.90
18648;DHT22;9453;50.294;18.644;2023-03-23T16:17:11;17.10;69.60
18648;DHT22;9453;50.294;18.644;2023-03-23T16:19:40;17.10;69.50
18648;DHT22;9453;50.294;18.644;2023-03-23T16:22:08;17.10;69.70
18648;DHT22;9453;50.294;18.644;2023-03-23T16:24:36;17.00;70.00
18648;DHT22;9453;50.294;18.644;2023-03-23T16:27:04;17.00;70.60
18648;DHT22;9453;50.294;18.644;2023-03-23T16:29:32;16.90;70.90
18648;DHT22;9453;50.294;18.644;2023-03-23T16:31:58;16.90;71.60
18648;DHT22;9453;50.294;18.644;2023-03-23T16:34:25;16.80;71.50
18648;DHT22;9453;50.294;18.644;2023-03-23T16:36:54;16.80;71.90
18648;DHT22;9453;50.294;18.644;2023-03-23T16:39:22;16.70;72.10
18648;DHT22;9453;50.294;18.644;2023-03-23T16:41:50;16.70;72.20
18648;DHT22;9453;50.294;18.644;2023-03-23T16:44:18;16.70;72.40
18648;DHT22;9453;50.294;18.644;2023-03-23T16:46:45;16.60;72.80
18648;DHT22;9453;50.294;18.644;2023-03-23T16:49:12;16.60;73.40
18648;DHT22;9453;50.294;18.644;2023-03-23T16:51:39;16.50;73.70
18648;DHT22;9453;50.294;18.644;2023-03-23T16:54:06;16.50;73.90
18648;DHT22;9453;50.294;18.644;2023-03-23T16:56:33;16.40;74.30
18648;DHT22;9453;50.294;18.644;2023-03-23T16:59:01;16.40;74.80
18648;DHT22;9453;50.294;18.644;2023-03-23T17:01:28;16.30;75.10
18648;DHT22;9453;50.294;18.644;2023-03-23T17:03:55;16.30;75.60
18648;DHT22;9453;50.294;18.644;2023-03-23T17:06:22;16.30;76.10
18648;DHT22;9453;50.294;18.644;2023-03-23T17:08:49;16.20;76.70
18648;DHT22;9453;50.294;18.644;2023-03-23T17:11:16;16.20;77.10
18648;DHT22;9453;50.294;18.644;2023-03-23T17:13:43;16.20;77.80
18648;DHT22;9453;50.294;18.644;2023-03-23T17:16:11;16.10;78.40
18648;DHT22;9453;50.294;18.644;2023-03-23T17:18:38;16.00;79.30
18648;DHT22;9453;50.294;18.644;2023-03-23T17:21:06;16.00;80.20
18648;DHT22;9453;50.294;18.644;2023-03-23T17:23:33;15.90;81.10
18648;DHT22;9453;50.294;18.644;2023-03-23T17:26:00;15.90;82.40
18648;DHT22;9453;50.294;18.644;2023-03-23T17:28:28;15.80;84.50
18648;DHT22;9453;50.294;18.644;2023-03-23T17:30:55;15.70;85.00
18648;DHT22;9453;50.294;18.644;2023-03-23T17:33:24;15.60;84.80
18648;DHT22;9453;50.294;18.644;2023-03-23T17:35:51;15.50;84.70
18648;DHT22;9453;50.294;18.644;2023-03-23T17:38:19;15.40;84.60
18648;DHT22;9453;50.294;18.644;2023-03-23T17:40:46;15.40;84.60
18648;DHT22;9453;50.294;18.644;2023-03-23T17:43:13;15.30;84.50
18648;DHT22;9453;50.294;18.644;2023-03-23T17:45:40;15.30;84.40
18648;DHT22;9453;50.294;18.644;2023-03-23T17:48:07;15.30;84.40
18648;DHT22;9453;50.294;18.644;2023-03-23T17:50:36;15.30;84.40
18648;DHT22;9453;50.294;18.644;2023-03-23T17:53:03;15.30;84.90
18648;DHT22;9453;50.294;18.644;2023-03-23T17:55:30;15.20;84.70
18648;DHT22;9453;50.294;18.644;2023-03-23T17:57:57;15.20;86.20
18648;DHT22;9453;50.294;18.644;2023-03-23T18:00:24;15.20;86.40
18648;DHT22;9453;50.294;18.644;2023-03-23T18:02:51;15.20;86.50
18648;DHT22;9453;50.294;18.644;2023-03-23T18:05:18;15.10;86.10
18648;DHT22;9453;50.294;18.644;2023-03-23T18:07:46;15.10;86.30
18648;DHT22;9453;50.294;18.644;2023-03-23T18:10:15;15.10;86.40
18648;DHT22;9453;50.294;18.644;2023-03-23T18:12:42;15.10;86.40
18648;DHT22;9453;50.294;18.644;2023-03-23T18:15:09;15.10;86.70
18648;DHT22;9453;50.294;18.644;2023-03-23T18:17:37;15.10;86.90
18648;DHT22;9453;50.294;18.644;2023-03-23T18:20:05;15.10;86.70
18648;DHT22;9453;50.294;18.644;2023-03-23T18:22:33;15.10;86.30
18648;DHT22;9453;50.294;18.644;2023-03-23T18:25:02;15.10;86.60
18648;DHT22;9453;50.294;18.644;2023-03-23T18:27:29;15.10;86.50
18648;DHT22;9453;50.294;18.644;2023-03-23T18:29:58;15.10;87.00
18648;DHT22;9453;50.294;18.644;2023-03-23T18:32:25;15.10;87.40
18648;DHT22;9453;50.294;18.644;2023-03-23T18:34:53;15.10;86.80
18648;DHT22;9453;50.294;18.644;2023-03-23T18:37:20;15.10;86.40
18648;DHT22;9453;50.294;18.644;2023-03-23T18:39:56;15.10;86.00
18648;DHT22;9453;50.294;18.644;2023-03-23T18:42:28;15.10;84.90
18648;DHT22;9453;50.294;18.644;2023-03-23T18:44:55;15.10;83.50
18648;DHT22;9453;50.294;18.644;2023-03-23T18:47:24;15.10;83.20
18648;DHT22;9453;50.294;18.644;2023-03-23T18:49:52;15.20;82.70
18648;DHT22;9453;50.294;18.644;2023-03-23T18:52:20;15.30;81.80
18648;DHT22;9453;50.294;18.644;2023-03-23T18:54:50;15.30;81.40
18648;DHT22;9453;50.294;18.644;2023-03-23T18:57:18;15.40;81.10
18648;DHT22;9453;50.294;18.644;2023-03-23T18:59:51;15.40;81.10
18648;DHT22;9453;50.294;18.644;2023-03-23T19:02:18;15.40;80.60
18648;DHT22;9453;50.294;18.644;2023-03-23T19:04:47;15.50;80.40
18648;DHT22;9453;50.294;18.644;2023-03-23T19:07:15;15.50;80.40
18648;DHT22;9453;50.294;18.644;2023-03-23T19:09:42;15.50;80.50
18648;DHT22;9453;50.294;18.644;2023-03-23T19:12:11;15.50;80.40
18648;DHT22;9453;50.294;18.644;2023-03-23T19:14:39;15.50;80.40
18648;DHT22;9453;50.294;18.644;2023-03-23T19:17:08;15.50;80.40
18648;DHT22;9453;50.294;18.644;2023-03-23T19:19:36;15.50;80.40
18648;DHT22;9453;50.294;18.644;2023-03-23T19:22:03;15.50;80.80
18648;DHT22;9453;50.294;18.644;2023-03-23T19:24:32;15.50;81.20
18648;DHT22;9453;50.294;18.644;2023-03-23T19:26:59;15.50;81.20
18648;DHT22;9453;50.294;18.644;2023-03-23T19:29:26;15.40;81.30
18648;DHT22;9453;50.294;18.644;2023-03-23T19:31:53;15.40;81.70
18648;DHT22;9453;50.294;18.644;2023-03-23T19:34:22;15.40;81.80
18648;DHT22;9453;50.294;18.644;2023-03-23T19:36:50;15.40;82.00
18648;DHT22;9453;50.294;18.644;2023-03-23T19:39:17;15.40;81.90
18648;DHT22;9453;50.294;18.644;2023-03-23T19:41:46;15.40;81.70
18648;DHT22;9453;50.294;18.644;2023-03-23T19:44:13;15.30;81.60
18648;DHT22;9453;50.294;18.644;2023-03-23T19:46:40;15.30;81.60
18648;DHT22;9453;50.294;18.644;2023-03-23T19:49:07;15.30;81.10
18648;DHT22;9453;50.294;18.644;2023-03-23T19:51:37;15.30;80.60
18648;DHT22;9453;50.294;18.644;2023-03-23T19:54:04;15.40;80.10
18648;DHT22;9453;50.294;18.644;2023-03-23T19:56:33;15.40;79.70
18648;DHT22;9453;50.294;18.644;2023-03-23T19:59:01;15.40;79.60
18648;DHT22;9453;50.294;18.644;2023-03-23T20:01:28;15.50;79.90
18648;DHT22;9453;50.294;18.644;2023-03-23T20:03:56;15.50;80.10
18648;DHT22;9453;50.294;18.644;2023-03-23T20:06:25;15.50;80.40
18648;DHT22;9453;50.294;18.644;2023-03-23T20:08:54;15.50;80.40
18648;DHT22;9453;50.294;18.644;2023-03-23T20:11:21;15.40;80.40
18648;DHT22;9453;50.294;18.644;2023-03-23T20:13:48;15.40;80.60
18648;DHT22;9453;50.294;18.644;2023-03-23T20:16:16;15.40;80.80
18648;DHT22;9453;50.294;18.644;2023-03-23T20:18:44;15.40;80.90
18648;DHT22;9453;50.294;18.644;2023-03-23T20:21:13;15.40;80.90
18648;DHT22;9453;50.294;18.644;2023-03-23T20:23:42;15.40;80.70
18648;DHT22;9453;50.294;18.644;2023-03-23T20:26:13;15.30;80.70
18648;DHT22;9453;50.294;18.644;2023-03-23T20:28:41;15.30;80.50
18648;DHT22;9453;50.294;18.644;2023-03-23T20:31:12;15.30;80.40
18648;DHT22;9453;50.294;18.644;2023-03-23T20:33:39;15.30;80.60
18648;DHT22;9453;50.294;18.644;2023-03-23T20:36:07;15.30;80.20
18648;DHT22;9453;50.294;18.644;2023-03-23T20:38:36;15.30;80.20
18648;DHT22;9453;50.294;18.644;2023-03-23T20:41:06;15.30;79.80
18648;DHT22;9453;50.294;18.644;2023-03-23T20:43:38;15.30;79.90
18648;DHT22;9453;50.294;18.644;2023-03-23T20:46:07;15.30;79.60
18648;DHT22;9453;50.294;18.644;2023-03-23T20:48:36;15.30;79.70
18648;DHT22;9453;50.294;18.644;2023-03-23T20:51:06;15.30;79.30